Kezdőlap
METAR-TAF:

METAR-TAF

Repülőterek :

Pekanbaru, Indonézia

földrajzi szélesség: 00-28N, földrajzi hosszúság: 101-27E, magasság: 31 m

Jelenlegi meteorológiai megfigyelések

A jelentés 53 perccel ezelõtt készült, 03:00 UTC
Dél-délkeleti szél 10 kt
Hőmérséklet 24°C
Páratartalom 100%
Légköri nyomás 1010 hPa
Látótávolság: 8000 m
Szakadozott felhőzet 1000 lábon

METAR: WIBB 220300Z 16010KT 8000 BKN010 24/24 Q1010 NOSIG

Idő: 10:53 (03:53 UTC)


TAF: hiányzik

Meteorológiai megfigyelések és előrejelzések több, mint 4000 repülőtéren (METAR és TAF jelentéseket).

A térképen piros és sárga pontok jelzik az elérhető meteorológiai állomásokat.

Mozgassa az egeret a pont fölött, hogy megjelenjen az állomás neve.

Azután kattintson az időjárási megfigyelések és előrejelzések megtekintéséhez.

A térkép megváltoztatása: kattintson a fekete keresztel jelölt zöld gombra ráközelítéshez, a vonallal jelölt zöld gombra távolításhoz, vagy a zöld nyilakra a szomszédos térképek eléréséhez.


METAR-TAF: